sensor_id;sensor_type;location;lat;lon;timestamp;P1;durP1;ratioP1;P2;durP2;ratioP2
15474;SDS011;7839;50.462;9.678;2023-08-21T00:03:14;1.45;;;1.40;;
15474;SDS011;7839;50.462;9.678;2023-08-21T00:09:55;1.30;;;1.30;;
15474;SDS011;7839;50.462;9.678;2023-08-21T00:16:35;1.50;;;1.50;;
15474;SDS011;7839;50.462;9.678;2023-08-21T00:23:15;1.10;;;1.10;;
15474;SDS011;7839;50.462;9.678;2023-08-21T00:29:55;1.25;;;1.25;;
15474;SDS011;7839;50.462;9.678;2023-08-21T00:36:35;1.15;;;1.15;;
15474;SDS011;7839;50.462;9.678;2023-08-21T00:43:16;1.15;;;1.15;;
15474;SDS011;7839;50.462;9.678;2023-08-21T00:49:56;1.15;;;1.15;;
15474;SDS011;7839;50.462;9.678;2023-08-21T00:56:36;1.00;;;1.00;;
15474;SDS011;7839;50.462;9.678;2023-08-21T01:03:16;1.55;;;1.38;;
15474;SDS011;7839;50.462;9.678;2023-08-21T01:10:01;1.33;;;1.30;;
15474;SDS011;7839;50.462;9.678;2023-08-21T01:16:43;1.50;;;1.50;;
15474;SDS011;7839;50.462;9.678;2023-08-21T01:30:10;1.23;;;1.23;;
15474;SDS011;7839;50.462;9.678;2023-08-21T01:36:50;1.10;;;1.05;;
15474;SDS011;7839;50.462;9.678;2023-08-21T01:43:31;1.20;;;1.20;;
15474;SDS011;7839;50.462;9.678;2023-08-21T01:50:11;1.00;;;1.00;;
15474;SDS011;7839;50.462;9.678;2023-08-21T01:56:51;1.23;;;1.23;;
15474;SDS011;7839;50.462;9.678;2023-08-21T02:03:31;1.05;;;1.05;;
15474;SDS011;7839;50.462;9.678;2023-08-21T02:10:12;1.10;;;1.10;;
15474;SDS011;7839;50.462;9.678;2023-08-21T02:16:52;1.17;;;1.17;;
15474;SDS011;7839;50.462;9.678;2023-08-21T02:23:32;1.05;;;1.05;;
15474;SDS011;7839;50.462;9.678;2023-08-21T02:30:12;1.05;;;1.02;;
15474;SDS011;7839;50.462;9.678;2023-08-21T02:36:53;0.88;;;0.88;;
15474;SDS011;7839;50.462;9.678;2023-08-21T02:43:33;1.17;;;1.08;;
15474;SDS011;7839;50.462;9.678;2023-08-21T02:50:14;1.10;;;1.10;;
15474;SDS011;7839;50.462;9.678;2023-08-21T02:56:54;1.10;;;1.10;;
15474;SDS011;7839;50.462;9.678;2023-08-21T03:03:34;1.00;;;1.00;;
15474;SDS011;7839;50.462;9.678;2023-08-21T03:10:15;0.90;;;0.90;;
15474;SDS011;7839;50.462;9.678;2023-08-21T03:16:56;1.10;;;1.00;;
15474;SDS011;7839;50.462;9.678;2023-08-21T03:23:36;1.00;;;1.00;;
15474;SDS011;7839;50.462;9.678;2023-08-21T03:30:16;0.80;;;0.80;;
15474;SDS011;7839;50.462;9.678;2023-08-21T03:36:56;0.80;;;0.80;;
15474;SDS011;7839;50.462;9.678;2023-08-21T03:43:37;0.77;;;0.77;;
15474;SDS011;7839;50.462;9.678;2023-08-21T03:50:17;0.73;;;0.73;;
15474;SDS011;7839;50.462;9.678;2023-08-21T03:56:57;0.90;;;0.90;;
15474;SDS011;7839;50.462;9.678;2023-08-21T04:03:37;0.68;;;0.68;;
15474;SDS011;7839;50.462;9.678;2023-08-21T04:10:17;0.80;;;0.80;;
15474;SDS011;7839;50.462;9.678;2023-08-21T04:16:58;0.60;;;0.60;;
15474;SDS011;7839;50.462;9.678;2023-08-21T04:23:38;0.90;;;0.90;;
15474;SDS011;7839;50.462;9.678;2023-08-21T04:30:18;0.60;;;0.60;;
15474;SDS011;7839;50.462;9.678;2023-08-21T04:36:58;1.00;;;1.00;;
15474;SDS011;7839;50.462;9.678;2023-08-21T04:43:38;0.70;;;0.70;;
15474;SDS011;7839;50.462;9.678;2023-08-21T04:50:19;0.85;;;0.85;;
15474;SDS011;7839;50.462;9.678;2023-08-21T04:56:59;0.70;;;0.70;;
15474;SDS011;7839;50.462;9.678;2023-08-21T05:03:39;0.80;;;0.80;;
15474;SDS011;7839;50.462;9.678;2023-08-21T05:10:20;0.88;;;0.88;;
15474;SDS011;7839;50.462;9.678;2023-08-21T05:17:00;0.60;;;0.60;;
15474;SDS011;7839;50.462;9.678;2023-08-21T05:23:40;0.70;;;0.70;;
15474;SDS011;7839;50.462;9.678;2023-08-21T05:30:20;0.73;;;0.73;;
15474;SDS011;7839;50.462;9.678;2023-08-21T05:37:01;0.88;;;0.88;;
15474;SDS011;7839;50.462;9.678;2023-08-21T05:43:41;0.95;;;0.95;;
15474;SDS011;7839;50.462;9.678;2023-08-21T05:50:22;0.80;;;0.80;;
15474;SDS011;7839;50.462;9.678;2023-08-21T05:57:02;0.90;;;0.90;;
15474;SDS011;7839;50.462;9.678;2023-08-21T06:03:43;0.80;;;0.80;;
15474;SDS011;7839;50.462;9.678;2023-08-21T06:10:23;0.75;;;0.75;;
15474;SDS011;7839;50.462;9.678;2023-08-21T06:17:04;0.70;;;0.70;;
15474;SDS011;7839;50.462;9.678;2023-08-21T06:23:45;0.90;;;0.90;;
15474;SDS011;7839;50.462;9.678;2023-08-21T06:30:25;8.70;;;7.05;;
15474;SDS011;7839;50.462;9.678;2023-08-21T06:37:06;10.32;;;8.32;;
15474;SDS011;7839;50.462;9.678;2023-08-21T06:43:46;10.85;;;6.95;;
15474;SDS011;7839;50.462;9.678;2023-08-21T06:50:26;1.33;;;1.33;;
15474;SDS011;7839;50.462;9.678;2023-08-21T06:57:06;10.57;;;7.85;;
15474;SDS011;7839;50.462;9.678;2023-08-21T07:03:47;8.68;;;7.72;;
15474;SDS011;7839;50.462;9.678;2023-08-21T07:10:27;1.55;;;1.45;;
15474;SDS011;7839;50.462;9.678;2023-08-21T07:17:07;9.15;;;8.25;;
15474;SDS011;7839;50.462;9.678;2023-08-21T07:23:47;11.30;;;8.40;;
15474;SDS011;7839;50.462;9.678;2023-08-21T07:30:27;10.50;;;9.48;;
15474;SDS011;7839;50.462;9.678;2023-08-21T07:37:08;1.90;;;1.80;;
15474;SDS011;7839;50.462;9.678;2023-08-21T07:43:49;3.90;;;3.55;;
15474;SDS011;7839;50.462;9.678;2023-08-21T07:50:29;4.07;;;3.78;;
15474;SDS011;7839;50.462;9.678;2023-08-21T07:57:09;12.02;;;9.25;;
15474;SDS011;7839;50.462;9.678;2023-08-21T08:03:49;2.45;;;2.35;;
15474;SDS011;7839;50.462;9.678;2023-08-21T08:10:29;9.90;;;8.90;;
15474;SDS011;7839;50.462;9.678;2023-08-21T08:17:09;10.93;;;9.13;;
15474;SDS011;7839;50.462;9.678;2023-08-21T08:23:50;3.95;;;3.65;;
15474;SDS011;7839;50.462;9.678;2023-08-21T08:30:30;8.07;;;7.18;;
15474;SDS011;7839;50.462;9.678;2023-08-21T08:37:10;9.30;;;8.50;;
15474;SDS011;7839;50.462;9.678;2023-08-21T08:43:50;3.97;;;3.67;;
15474;SDS011;7839;50.462;9.678;2023-08-21T08:50:33;9.73;;;8.45;;
15474;SDS011;7839;50.462;9.678;2023-08-21T08:57:14;3.17;;;2.97;;
15474;SDS011;7839;50.462;9.678;2023-08-21T09:03:54;9.70;;;8.75;;
15474;SDS011;7839;50.462;9.678;2023-08-21T09:10:35;10.40;;;9.07;;
15474;SDS011;7839;50.462;9.678;2023-08-21T09:17:16;4.20;;;3.90;;
15474;SDS011;7839;50.462;9.678;2023-08-21T09:23:57;6.45;;;5.82;;
15474;SDS011;7839;50.462;9.678;2023-08-21T09:30:48;3.83;;;3.60;;
15474;SDS011;7839;50.462;9.678;2023-08-21T09:37:29;11.45;;;9.50;;
15474;SDS011;7839;50.462;9.678;2023-08-21T09:44:09;5.43;;;5.03;;
15474;SDS011;7839;50.462;9.678;2023-08-21T09:50:50;4.50;;;4.20;;
15474;SDS011;7839;50.462;9.678;2023-08-21T09:57:31;10.77;;;8.20;;
15474;SDS011;7839;50.462;9.678;2023-08-21T10:04:11;6.00;;;5.45;;
15474;SDS011;7839;50.462;9.678;2023-08-21T10:10:52;5.45;;;4.57;;
15474;SDS011;7839;50.462;9.678;2023-08-21T10:17:32;6.35;;;5.82;;
15474;SDS011;7839;50.462;9.678;2023-08-21T10:24:12;5.57;;;5.18;;
15474;SDS011;7839;50.462;9.678;2023-08-21T10:38:16;5.28;;;4.97;;
15474;SDS011;7839;50.462;9.678;2023-08-21T10:44:57;5.22;;;4.80;;
15474;SDS011;7839;50.462;9.678;2023-08-21T10:51:40;6.63;;;4.55;;
15474;SDS011;7839;50.462;9.678;2023-08-21T10:58:21;5.55;;;5.15;;
15474;SDS011;7839;50.462;9.678;2023-08-21T11:05:01;5.63;;;5.22;;
15474;SDS011;7839;50.462;9.678;2023-08-21T11:11:45;6.30;;;5.75;;
15474;SDS011;7839;50.462;9.678;2023-08-21T11:25:11;6.20;;;4.82;;
15474;SDS011;7839;50.462;9.678;2023-08-21T11:31:51;6.78;;;5.40;;
15474;SDS011;7839;50.462;9.678;2023-08-21T11:38:32;5.70;;;4.63;;
15474;SDS011;7839;50.462;9.678;2023-08-21T11:45:12;4.75;;;4.35;;
15474;SDS011;7839;50.462;9.678;2023-08-21T11:51:52;5.07;;;4.25;;
15474;SDS011;7839;50.462;9.678;2023-08-21T11:58:32;5.25;;;4.75;;
15474;SDS011;7839;50.462;9.678;2023-08-21T12:05:13;4.70;;;4.30;;
15474;SDS011;7839;50.462;9.678;2023-08-21T12:11:54;5.63;;;5.13;;
15474;SDS011;7839;50.462;9.678;2023-08-21T12:18:34;6.50;;;4.90;;
15474;SDS011;7839;50.462;9.678;2023-08-21T12:25:15;5.03;;;4.63;;
15474;SDS011;7839;50.462;9.678;2023-08-21T12:31:56;5.82;;;4.53;;
15474;SDS011;7839;50.462;9.678;2023-08-21T12:38:36;5.55;;;4.00;;
15474;SDS011;7839;50.462;9.678;2023-08-21T12:45:16;5.18;;;4.68;;
15474;SDS011;7839;50.462;9.678;2023-08-21T12:51:57;3.70;;;3.40;;
15474;SDS011;7839;50.462;9.678;2023-08-21T12:58:37;6.22;;;5.72;;
15474;SDS011;7839;50.462;9.678;2023-08-21T13:05:17;4.35;;;3.60;;
15474;SDS011;7839;50.462;9.678;2023-08-21T13:11:57;3.92;;;3.63;;
15474;SDS011;7839;50.462;9.678;2023-08-21T13:18:37;3.47;;;3.17;;
15474;SDS011;7839;50.462;9.678;2023-08-21T13:25:19;4.45;;;3.35;;
15474;SDS011;7839;50.462;9.678;2023-08-21T13:31:59;3.47;;;3.20;;
15474;SDS011;7839;50.462;9.678;2023-08-21T13:38:40;4.28;;;3.33;;
15474;SDS011;7839;50.462;9.678;2023-08-21T13:45:20;2.92;;;2.72;;
15474;SDS011;7839;50.462;9.678;2023-08-21T13:52:00;4.85;;;2.85;;
15474;SDS011;7839;50.462;9.678;2023-08-21T13:58:40;3.13;;;2.85;;
15474;SDS011;7839;50.462;9.678;2023-08-21T14:05:20;4.68;;;3.10;;
15474;SDS011;7839;50.462;9.678;2023-08-21T14:12:01;3.97;;;3.13;;
15474;SDS011;7839;50.462;9.678;2023-08-21T14:18:41;3.58;;;3.08;;
15474;SDS011;7839;50.462;9.678;2023-08-21T14:25:21;5.18;;;4.78;;
15474;SDS011;7839;50.462;9.678;2023-08-21T14:32:01;5.10;;;4.70;;
15474;SDS011;7839;50.462;9.678;2023-08-21T14:38:42;4.25;;;3.95;;
15474;SDS011;7839;50.462;9.678;2023-08-21T14:45:22;2.45;;;1.70;;
15474;SDS011;7839;50.462;9.678;2023-08-21T14:52:02;4.03;;;3.78;;
15474;SDS011;7839;50.462;9.678;2023-08-21T14:58:43;4.05;;;3.75;;
15474;SDS011;7839;50.462;9.678;2023-08-21T15:05:24;2.72;;;2.53;;
15474;SDS011;7839;50.462;9.678;2023-08-21T15:12:04;2.17;;;1.50;;
15474;SDS011;7839;50.462;9.678;2023-08-21T15:18:44;2.05;;;1.58;;
15474;SDS011;7839;50.462;9.678;2023-08-21T15:25:27;1.88;;;1.73;;
15474;SDS011;7839;50.462;9.678;2023-08-21T15:32:07;3.72;;;3.53;;
15474;SDS011;7839;50.462;9.678;2023-08-21T15:38:47;3.55;;;3.30;;
15474;SDS011;7839;50.462;9.678;2023-08-21T15:45:27;2.78;;;1.83;;
15474;SDS011;7839;50.462;9.678;2023-08-21T15:52:08;2.35;;;2.17;;
15474;SDS011;7839;50.462;9.678;2023-08-21T15:58:48;3.20;;;3.00;;
15474;SDS011;7839;50.462;9.678;2023-08-21T16:05:30;2.00;;;1.80;;
15474;SDS011;7839;50.462;9.678;2023-08-21T16:12:10;4.43;;;2.60;;
15474;SDS011;7839;50.462;9.678;2023-08-21T16:18:50;2.00;;;1.90;;
15474;SDS011;7839;50.462;9.678;2023-08-21T16:25:30;2.90;;;2.70;;
15474;SDS011;7839;50.462;9.678;2023-08-21T16:32:10;2.92;;;2.72;;
15474;SDS011;7839;50.462;9.678;2023-08-21T16:38:51;2.30;;;2.10;;
15474;SDS011;7839;50.462;9.678;2023-08-21T16:45:31;3.33;;;2.05;;
15474;SDS011;7839;50.462;9.678;2023-08-21T16:52:11;2.17;;;2.08;;
15474;SDS011;7839;50.462;9.678;2023-08-21T16:58:51;2.20;;;2.10;;
15474;SDS011;7839;50.462;9.678;2023-08-21T17:05:31;6.82;;;2.80;;
15474;SDS011;7839;50.462;9.678;2023-08-21T17:12:12;2.70;;;2.60;;
15474;SDS011;7839;50.462;9.678;2023-08-21T17:18:52;2.55;;;2.35;;
15474;SDS011;7839;50.462;9.678;2023-08-21T17:25:32;2.90;;;2.70;;
15474;SDS011;7839;50.462;9.678;2023-08-21T17:32:13;2.72;;;2.58;;
15474;SDS011;7839;50.462;9.678;2023-08-21T17:38:53;2.40;;;2.30;;
15474;SDS011;7839;50.462;9.678;2023-08-21T17:45:34;2.65;;;2.47;;
15474;SDS011;7839;50.462;9.678;2023-08-21T17:52:14;2.60;;;2.00;;
15474;SDS011;7839;50.462;9.678;2023-08-21T17:58:54;2.80;;;2.60;;
15474;SDS011;7839;50.462;9.678;2023-08-21T18:05:34;3.40;;;2.70;;
15474;SDS011;7839;50.462;9.678;2023-08-21T18:12:14;2.42;;;2.33;;
15474;SDS011;7839;50.462;9.678;2023-08-21T18:18:54;2.47;;;2.38;;
15474;SDS011;7839;50.462;9.678;2023-08-21T18:25:35;2.70;;;2.60;;
15474;SDS011;7839;50.462;9.678;2023-08-21T18:32:15;2.80;;;2.60;;
15474;SDS011;7839;50.462;9.678;2023-08-21T18:38:55;2.28;;;2.17;;
15474;SDS011;7839;50.462;9.678;2023-08-21T18:45:36;2.40;;;2.30;;
15474;SDS011;7839;50.462;9.678;2023-08-21T18:52:16;2.35;;;2.20;;
15474;SDS011;7839;50.462;9.678;2023-08-21T18:58:57;2.40;;;2.30;;
15474;SDS011;7839;50.462;9.678;2023-08-21T19:05:37;4.60;;;2.58;;
15474;SDS011;7839;50.462;9.678;2023-08-21T19:12:17;2.50;;;2.40;;
15474;SDS011;7839;50.462;9.678;2023-08-21T19:18:58;2.42;;;2.33;;
15474;SDS011;7839;50.462;9.678;2023-08-21T19:25:38;2.35;;;2.20;;
15474;SDS011;7839;50.462;9.678;2023-08-21T19:32:19;2.90;;;2.70;;
15474;SDS011;7839;50.462;9.678;2023-08-21T19:38:59;2.20;;;2.10;;
15474;SDS011;7839;50.462;9.678;2023-08-21T19:45:40;2.38;;;2.25;;
15474;SDS011;7839;50.462;9.678;2023-08-21T19:52:21;2.35;;;2.25;;
15474;SDS011;7839;50.462;9.678;2023-08-21T19:59:01;2.30;;;2.20;;
15474;SDS011;7839;50.462;9.678;2023-08-21T20:05:42;2.15;;;2.05;;
15474;SDS011;7839;50.462;9.678;2023-08-21T20:12:22;2.20;;;2.10;;
15474;SDS011;7839;50.462;9.678;2023-08-21T20:19:02;1.90;;;1.80;;
15474;SDS011;7839;50.462;9.678;2023-08-21T20:25:43;2.30;;;2.20;;
15474;SDS011;7839;50.462;9.678;2023-08-21T20:32:24;1.90;;;1.80;;
15474;SDS011;7839;50.462;9.678;2023-08-21T20:39:04;1.73;;;1.63;;
15474;SDS011;7839;50.462;9.678;2023-08-21T20:45:45;1.80;;;1.70;;
15474;SDS011;7839;50.462;9.678;2023-08-21T20:52:25;2.28;;;1.92;;
15474;SDS011;7839;50.462;9.678;2023-08-21T20:59:08;1.80;;;1.70;;
15474;SDS011;7839;50.462;9.678;2023-08-21T21:05:48;1.70;;;1.60;;
15474;SDS011;7839;50.462;9.678;2023-08-21T21:12:32;1.60;;;1.60;;
15474;SDS011;7839;50.462;9.678;2023-08-21T21:19:12;1.30;;;1.30;;
15474;SDS011;7839;50.462;9.678;2023-08-21T21:25:52;1.60;;;1.50;;
15474;SDS011;7839;50.462;9.678;2023-08-21T21:32:33;1.52;;;1.42;;
15474;SDS011;7839;50.462;9.678;2023-08-21T21:39:13;1.33;;;1.23;;
15474;SDS011;7839;50.462;9.678;2023-08-21T21:45:56;1.10;;;1.10;;
15474;SDS011;7839;50.462;9.678;2023-08-21T21:52:37;1.35;;;1.30;;
15474;SDS011;7839;50.462;9.678;2023-08-21T21:59:17;1.10;;;1.10;;
15474;SDS011;7839;50.462;9.678;2023-08-21T22:05:58;1.00;;;1.00;;
15474;SDS011;7839;50.462;9.678;2023-08-21T22:12:38;1.30;;;1.30;;
15474;SDS011;7839;50.462;9.678;2023-08-21T22:19:18;1.02;;;1.02;;
15474;SDS011;7839;50.462;9.678;2023-08-21T22:25:58;1.05;;;1.05;;
15474;SDS011;7839;50.462;9.678;2023-08-21T22:32:39;1.17;;;1.17;;
15474;SDS011;7839;50.462;9.678;2023-08-21T22:39:19;2.90;;;2.00;;
15474;SDS011;7839;50.462;9.678;2023-08-21T22:46:02;1.10;;;1.10;;
15474;SDS011;7839;50.462;9.678;2023-08-21T22:52:42;0.88;;;0.88;;
15474;SDS011;7839;50.462;9.678;2023-08-21T22:59:22;0.90;;;0.90;;
15474;SDS011;7839;50.462;9.678;2023-08-21T23:06:03;0.75;;;0.75;;
15474;SDS011;7839;50.462;9.678;2023-08-21T23:12:43;0.82;;;0.82;;
15474;SDS011;7839;50.462;9.678;2023-08-21T23:19:23;0.80;;;0.80;;
15474;SDS011;7839;50.462;9.678;2023-08-21T23:26:03;0.90;;;0.90;;
15474;SDS011;7839;50.462;9.678;2023-08-21T23:32:44;0.70;;;0.70;;
15474;SDS011;7839;50.462;9.678;2023-08-21T23:39:24;0.75;;;0.75;;
15474;SDS011;7839;50.462;9.678;2023-08-21T23:46:05;0.70;;;0.70;;
15474;SDS011;7839;50.462;9.678;2023-08-21T23:52:46;0.60;;;0.60;;
15474;SDS011;7839;50.462;9.678;2023-08-21T23:59:26;0.60;;;0.60;;
